JBU2606 TBPB-TJSJ
Flight info
| Callsign | JBU2606 |
|---|---|
| Flight time | 1h 23m |
| Altitude | 36000 |
| Route | FOF UA555 ILURI A555 COY RTE4 VEDAS |
| Aircraft | A320/M-SDE3FGHIRWY/LB1 |
Departure
| Time | 2026-05-05 00:18 |
|---|---|
| Airport | Grantley Adams International Airport (TBPB) |
Arrival
| Time | 2026-05-05 01:42 |
|---|---|
| Airport | Luis Munoz Marin International Airport (TJSJ) |
| Time | Latitude | Longitude | Altitude | Speed | Heading |
|---|---|---|---|---|---|
| 2026-05-04 23:56 | 13.07924 | -59.48566 | 173 ft | 0 kts | 345° |
| 2026-05-05 00:10 | 13.07918 | -59.48564 | 172 ft | 2 kts | 345° |
| 2026-05-05 00:10 | 13.07902 | -59.48560 | 172 ft | 2 kts | 345° |
| 2026-05-05 00:10 | 13.07885 | -59.48555 | 172 ft | 2 kts | 345° |
| 2026-05-05 00:10 | 13.07868 | -59.48551 | 173 ft | 2 kts | 345° |
| 2026-05-05 00:11 | 13.07852 | -59.48547 | 173 ft | 2 kts | 330° |
| 2026-05-05 00:11 | 13.07839 | -59.48535 | 173 ft | 2 kts | 295° |
| 2026-05-05 00:11 | 13.07836 | -59.48526 | 173 ft | 0 kts | 259° |
| 2026-05-05 00:13 | 13.07836 | -59.48529 | 173 ft | 1 kts | 259° |
| 2026-05-05 00:13 | 13.07829 | -59.48547 | 172 ft | 4 kts | 248° |
| 2026-05-05 00:14 | 13.07815 | -59.48586 | 172 ft | 8 kts | 253° |
| 2026-05-05 00:14 | 13.07794 | -59.48662 | 172 ft | 14 kts | 256° |
| 2026-05-05 00:14 | 13.07753 | -59.48767 | 173 ft | 18 kts | 234° |
| 2026-05-05 00:14 | 13.07706 | -59.48904 | 173 ft | 23 kts | 256° |
| 2026-05-05 00:15 | 13.07665 | -59.49078 | 173 ft | 27 kts | 256° |
| 2026-05-05 00:15 | 13.07617 | -59.49268 | 173 ft | 25 kts | 256° |
| 2026-05-05 00:15 | 13.07577 | -59.49432 | 173 ft | 24 kts | 256° |
| 2026-05-05 00:15 | 13.07535 | -59.49608 | 173 ft | 27 kts | 256° |
| 2026-05-05 00:16 | 13.07488 | -59.49799 | 173 ft | 29 kts | 256° |
| 2026-05-05 00:16 | 13.07436 | -59.50006 | 173 ft | 31 kts | 255° |
| 2026-05-05 00:16 | 13.07382 | -59.50228 | 173 ft | 33 kts | 256° |
| 2026-05-05 00:16 | 13.07326 | -59.50460 | 173 ft | 28 kts | 256° |
| 2026-05-05 00:17 | 13.07280 | -59.50647 | 173 ft | 26 kts | 256° |
| 2026-05-05 00:17 | 13.07199 | -59.50724 | 172 ft | 18 kts | 172° |
| 2026-05-05 00:17 | 13.07112 | -59.50692 | 173 ft | 11 kts | 128° |
| 2026-05-05 00:17 | 13.07121 | -59.50610 | 173 ft | 14 kts | 75° |
| 2026-05-05 00:18 | 13.07192 | -59.50322 | 176 ft | 84 kts | 75° |
| 2026-05-05 00:18 | 13.07401 | -59.49474 | 192 ft | 157 kts | 76° |
| 2026-05-05 00:18 | 13.07666 | -59.48367 | 882 ft | 163 kts | 76° |
| 2026-05-05 00:18 | 13.07940 | -59.47201 | 1713 ft | 175 kts | 77° |
| 2026-05-05 00:19 | 13.08508 | -59.46060 | 2170 ft | 195 kts | 44° |
| 2026-05-05 00:19 | 13.09854 | -59.45572 | 2428 ft | 227 kts | 0° |
| 2026-05-05 00:19 | 13.11422 | -59.46169 | 2807 ft | 260 kts | 328° |
| 2026-05-05 00:19 | 13.12847 | -59.47423 | 3484 ft | 276 kts | 317° |
| 2026-05-05 00:20 | 13.14166 | -59.48886 | 4358 ft | 282 kts | 313° |
| 2026-05-05 00:20 | 13.15467 | -59.50413 | 5263 ft | 286 kts | 312° |
| 2026-05-05 00:20 | 13.16803 | -59.51962 | 6081 ft | 293 kts | 313° |
| 2026-05-05 00:20 | 13.18189 | -59.53520 | 6847 ft | 298 kts | 314° |
| 2026-05-05 00:21 | 13.19618 | -59.55078 | 7637 ft | 301 kts | 315° |
| 2026-05-05 00:21 | 13.21080 | -59.56633 | 8445 ft | 304 kts | 316° |
| 2026-05-05 00:21 | 13.22569 | -59.58195 | 9237 ft | 307 kts | 316° |
| 2026-05-05 00:21 | 13.24073 | -59.59763 | 10030 ft | 311 kts | 317° |
| 2026-05-05 00:22 | 13.25636 | -59.61390 | 10360 ft | 331 kts | 317° |
| 2026-05-05 00:22 | 13.27301 | -59.63120 | 10670 ft | 347 kts | 316° |
| 2026-05-05 00:22 | 13.29007 | -59.64901 | 11240 ft | 352 kts | 316° |
| 2026-05-05 00:22 | 13.30730 | -59.66707 | 11871 ft | 356 kts | 316° |
| 2026-05-05 00:23 | 13.32470 | -59.68533 | 12504 ft | 359 kts | 316° |
| 2026-05-05 00:23 | 13.34225 | -59.70377 | 13137 ft | 362 kts | 316° |
| 2026-05-05 00:23 | 13.35994 | -59.72232 | 13779 ft | 366 kts | 316° |
| 2026-05-05 00:23 | 13.37760 | -59.74081 | 14312 ft | 368 kts | 316° |
| 2026-05-05 00:24 | 13.39554 | -59.75962 | 14900 ft | 370 kts | 316° |
| 2026-05-05 00:24 | 13.41357 | -59.77855 | 15495 ft | 371 kts | 316° |
| 2026-05-05 00:24 | 13.43190 | -59.79783 | 16103 ft | 372 kts | 316° |
| 2026-05-05 00:24 | 13.44979 | -59.81660 | 16711 ft | 374 kts | 316° |
| 2026-05-05 00:25 | 13.46800 | -59.83569 | 17299 ft | 375 kts | 316° |
| 2026-05-05 00:25 | 13.48630 | -59.85489 | 17907 ft | 376 kts | 316° |
| 2026-05-05 00:25 | 13.50466 | -59.87416 | 18487 ft | 378 kts | 316° |
| 2026-05-05 00:25 | 13.52309 | -59.89350 | 18965 ft | 380 kts | 316° |
| 2026-05-05 00:26 | 13.54169 | -59.91301 | 19439 ft | 384 kts | 316° |
| 2026-05-05 00:26 | 13.56042 | -59.93268 | 19906 ft | 387 kts | 317° |
| 2026-05-05 00:26 | 13.57936 | -59.95259 | 20381 ft | 391 kts | 316° |
| 2026-05-05 00:26 | 13.59840 | -59.97265 | 20844 ft | 394 kts | 316° |
| 2026-05-05 00:27 | 13.61762 | -59.99290 | 21304 ft | 398 kts | 316° |
| 2026-05-05 00:27 | 13.63702 | -60.01335 | 21764 ft | 401 kts | 316° |
| 2026-05-05 00:27 | 13.65662 | -60.03400 | 22197 ft | 406 kts | 316° |
| 2026-05-05 00:27 | 13.67645 | -60.05486 | 22648 ft | 409 kts | 316° |
| 2026-05-05 00:28 | 13.69645 | -60.07584 | 23112 ft | 413 kts | 316° |
| 2026-05-05 00:28 | 13.71663 | -60.09704 | 23562 ft | 417 kts | 316° |
| 2026-05-05 00:28 | 13.73694 | -60.11844 | 23942 ft | 420 kts | 316° |
| 2026-05-05 00:28 | 13.75741 | -60.13998 | 24341 ft | 422 kts | 316° |
| 2026-05-05 00:29 | 13.77794 | -60.16159 | 24761 ft | 423 kts | 316° |
| 2026-05-05 00:29 | 13.79852 | -60.18327 | 25161 ft | 424 kts | 316° |
| 2026-05-05 00:29 | 13.81913 | -60.20502 | 25563 ft | 426 kts | 316° |
| 2026-05-05 00:29 | 13.83984 | -60.22687 | 25962 ft | 427 kts | 316° |
| 2026-05-05 00:30 | 13.86060 | -60.24877 | 26359 ft | 428 kts | 316° |
| 2026-05-05 00:30 | 13.88139 | -60.27073 | 26740 ft | 429 kts | 316° |
| 2026-05-05 00:30 | 13.90224 | -60.29279 | 27116 ft | 430 kts | 316° |
| 2026-05-05 00:30 | 13.92314 | -60.31489 | 27485 ft | 431 kts | 316° |
| 2026-05-05 00:31 | 13.94415 | -60.33705 | 27854 ft | 433 kts | 316° |
| 2026-05-05 00:31 | 13.96494 | -60.35895 | 28217 ft | 434 kts | 316° |
| 2026-05-05 00:31 | 13.98604 | -60.38118 | 28580 ft | 435 kts | 316° |
| 2026-05-05 00:31 | 14.00752 | -60.40383 | 28943 ft | 437 kts | 316° |
| 2026-05-05 00:32 | 14.02881 | -60.42631 | 29305 ft | 439 kts | 316° |
| 2026-05-05 00:32 | 14.05015 | -60.44888 | 29669 ft | 441 kts | 316° |
| 2026-05-05 00:32 | 14.07128 | -60.47124 | 30031 ft | 442 kts | 316° |
| 2026-05-05 00:32 | 14.09282 | -60.49401 | 30356 ft | 444 kts | 316° |
| 2026-05-05 00:33 | 14.11441 | -60.51683 | 30651 ft | 445 kts | 316° |
| 2026-05-05 00:33 | 14.13607 | -60.53978 | 30944 ft | 447 kts | 315° |
| 2026-05-05 00:33 | 14.15775 | -60.56281 | 31228 ft | 449 kts | 315° |
| 2026-05-05 00:33 | 14.17955 | -60.58596 | 31509 ft | 450 kts | 315° |
| 2026-05-05 00:34 | 14.20141 | -60.60916 | 31823 ft | 451 kts | 315° |
| 2026-05-05 00:34 | 14.22323 | -60.63229 | 32220 ft | 450 kts | 315° |
| 2026-05-05 00:34 | 14.24500 | -60.65534 | 32628 ft | 448 kts | 315° |
| 2026-05-05 00:34 | 14.26671 | -60.67834 | 33036 ft | 447 kts | 315° |
| 2026-05-05 00:35 | 14.28832 | -60.70127 | 33444 ft | 445 kts | 315° |
| 2026-05-05 00:35 | 14.30991 | -60.72417 | 33865 ft | 444 kts | 315° |
| 2026-05-05 00:35 | 14.33139 | -60.74697 | 34250 ft | 443 kts | 315° |
| 2026-05-05 00:35 | 14.35284 | -60.76977 | 34572 ft | 442 kts | 315° |
| 2026-05-05 00:36 | 14.37421 | -60.79247 | 34889 ft | 441 kts | 315° |
| 2026-05-05 00:36 | 14.39560 | -60.81516 | 35212 ft | 441 kts | 315° |
| 2026-05-05 00:36 | 14.41692 | -60.83779 | 35518 ft | 440 kts | 315° |
| 2026-05-05 00:36 | 14.43826 | -60.86045 | 35823 ft | 439 kts | 315° |
| 2026-05-05 00:37 | 14.45957 | -60.88306 | 35999 ft | 440 kts | 315° |
| 2026-05-05 00:37 | 14.50185 | -60.92804 | 36038 ft | 434 kts | 315° |
| 2026-05-05 00:38 | 14.54382 | -60.97275 | 36056 ft | 433 kts | 315° |
| 2026-05-05 00:38 | 14.58578 | -61.01744 | 36057 ft | 433 kts | 315° |
| 2026-05-05 00:39 | 14.62698 | -61.06291 | 36057 ft | 434 kts | 314° |
| 2026-05-05 00:39 | 14.66718 | -61.10940 | 36056 ft | 434 kts | 313° |
| 2026-05-05 00:40 | 14.70738 | -61.15599 | 36055 ft | 434 kts | 313° |
| 2026-05-05 00:40 | 14.74756 | -61.20204 | 36052 ft | 434 kts | 314° |
| 2026-05-05 00:41 | 14.78833 | -61.24849 | 36054 ft | 434 kts | 314° |
| 2026-05-05 00:41 | 14.82877 | -61.29471 | 36063 ft | 433 kts | 314° |
| 2026-05-05 00:42 | 14.86891 | -61.34062 | 36067 ft | 433 kts | 314° |
| 2026-05-05 00:42 | 14.90928 | -61.38687 | 36066 ft | 433 kts | 314° |
| 2026-05-05 00:43 | 14.94957 | -61.43307 | 36078 ft | 433 kts | 314° |
| 2026-05-05 00:43 | 14.98994 | -61.47932 | 36081 ft | 433 kts | 314° |
| 2026-05-05 00:44 | 15.03018 | -61.52560 | 36072 ft | 433 kts | 314° |
| 2026-05-05 00:44 | 15.07050 | -61.57187 | 36080 ft | 432 kts | 314° |
| 2026-05-05 00:45 | 15.11072 | -61.61811 | 36084 ft | 432 kts | 314° |
| 2026-05-05 00:45 | 15.15091 | -61.66438 | 36086 ft | 432 kts | 314° |
| 2026-05-05 00:46 | 15.19106 | -61.71059 | 36084 ft | 432 kts | 314° |
| 2026-05-05 00:46 | 15.23119 | -61.75675 | 36080 ft | 431 kts | 314° |
| 2026-05-05 00:47 | 15.27131 | -61.80297 | 36076 ft | 431 kts | 314° |
| 2026-05-05 00:47 | 15.31143 | -61.84917 | 36075 ft | 431 kts | 314° |
| 2026-05-05 00:48 | 15.35149 | -61.89536 | 36076 ft | 431 kts | 314° |
| 2026-05-05 00:48 | 15.39153 | -61.94157 | 36070 ft | 431 kts | 314° |
| 2026-05-05 00:49 | 15.43127 | -61.98755 | 36080 ft | 431 kts | 314° |
| 2026-05-05 00:49 | 15.47132 | -62.03381 | 36079 ft | 431 kts | 314° |
| 2026-05-05 00:50 | 15.51141 | -62.08012 | 36077 ft | 431 kts | 314° |
| 2026-05-05 00:50 | 15.55142 | -62.12645 | 36081 ft | 431 kts | 314° |
| 2026-05-05 00:51 | 15.59138 | -62.17278 | 36075 ft | 431 kts | 314° |
| 2026-05-05 00:51 | 15.63134 | -62.21905 | 36084 ft | 431 kts | 314° |
| 2026-05-05 00:52 | 15.67139 | -62.26542 | 36072 ft | 431 kts | 313° |
| 2026-05-05 00:52 | 15.71130 | -62.31180 | 36076 ft | 431 kts | 313° |
| 2026-05-05 00:53 | 15.75120 | -62.35821 | 36076 ft | 431 kts | 313° |
| 2026-05-05 00:53 | 15.79088 | -62.40434 | 36073 ft | 431 kts | 313° |
| 2026-05-05 00:54 | 15.83080 | -62.45069 | 36081 ft | 431 kts | 313° |
| 2026-05-05 00:54 | 15.87075 | -62.49712 | 36086 ft | 431 kts | 313° |
| 2026-05-05 00:55 | 15.91062 | -62.54359 | 36085 ft | 431 kts | 313° |
| 2026-05-05 00:55 | 15.95053 | -62.59012 | 36091 ft | 431 kts | 313° |
| 2026-05-05 00:56 | 15.99047 | -62.63660 | 36085 ft | 431 kts | 313° |
| 2026-05-05 00:56 | 16.03034 | -62.68305 | 36085 ft | 431 kts | 313° |
| 2026-05-05 00:57 | 16.07017 | -62.72961 | 36077 ft | 431 kts | 313° |
| 2026-05-05 00:57 | 16.10997 | -62.77620 | 36086 ft | 431 kts | 313° |
| 2026-05-05 00:58 | 16.14979 | -62.82280 | 36086 ft | 431 kts | 313° |
| 2026-05-05 00:58 | 16.18960 | -62.86937 | 36076 ft | 431 kts | 313° |
| 2026-05-05 00:59 | 16.22942 | -62.91593 | 36083 ft | 431 kts | 313° |
| 2026-05-05 00:59 | 16.26251 | -62.95471 | 36087 ft | 431 kts | 313° |
| 2026-05-05 01:00 | 16.30822 | -63.00990 | 36089 ft | 431 kts | 307° |
| 2026-05-05 01:00 | 16.33759 | -63.05188 | 36081 ft | 431 kts | 307° |
| 2026-05-05 01:01 | 16.37856 | -63.11068 | 36090 ft | 431 kts | 307° |
| 2026-05-05 01:01 | 16.40809 | -63.15308 | 36084 ft | 431 kts | 307° |
| 2026-05-05 01:02 | 16.44334 | -63.20364 | 36088 ft | 431 kts | 307° |
| 2026-05-05 01:02 | 16.47842 | -63.25395 | 36084 ft | 431 kts | 307° |
| 2026-05-05 01:03 | 16.51364 | -63.30451 | 36088 ft | 431 kts | 307° |
| 2026-05-05 01:03 | 16.54887 | -63.35516 | 36083 ft | 431 kts | 307° |
| 2026-05-05 01:04 | 16.58407 | -63.40584 | 36084 ft | 431 kts | 307° |
| 2026-05-05 01:04 | 16.63686 | -63.48179 | 36096 ft | 431 kts | 307° |
| 2026-05-05 01:05 | 16.67197 | -63.53231 | 36098 ft | 430 kts | 307° |
| 2026-05-05 01:05 | 16.70707 | -63.58281 | 36088 ft | 430 kts | 307° |
| 2026-05-05 01:06 | 16.74203 | -63.63337 | 36093 ft | 430 kts | 307° |
| 2026-05-05 01:06 | 16.77698 | -63.68392 | 36098 ft | 429 kts | 307° |
| 2026-05-05 01:07 | 16.81202 | -63.73443 | 36095 ft | 429 kts | 307° |
| 2026-05-05 01:07 | 16.84697 | -63.78498 | 36086 ft | 429 kts | 307° |
| 2026-05-05 01:08 | 16.88169 | -63.83522 | 36094 ft | 429 kts | 306° |
| 2026-05-05 01:08 | 16.91677 | -63.88615 | 36091 ft | 429 kts | 306° |
| 2026-05-05 01:09 | 16.95142 | -63.93633 | 36091 ft | 429 kts | 307° |
| 2026-05-05 01:09 | 16.98637 | -63.98695 | 36092 ft | 429 kts | 307° |
| 2026-05-05 01:10 | 17.02125 | -64.03750 | 36092 ft | 429 kts | 306° |
| 2026-05-05 01:10 | 17.05608 | -64.08809 | 36100 ft | 429 kts | 306° |
| 2026-05-05 01:11 | 17.09086 | -64.13868 | 36090 ft | 428 kts | 306° |
| 2026-05-05 01:11 | 17.12561 | -64.18930 | 36088 ft | 428 kts | 306° |
| 2026-05-05 01:12 | 17.16036 | -64.23986 | 36067 ft | 429 kts | 306° |
| 2026-05-05 01:12 | 17.17777 | -64.26519 | 35828 ft | 428 kts | 306° |
| 2026-05-05 01:12 | 17.19511 | -64.29040 | 35575 ft | 426 kts | 306° |
| 2026-05-05 01:13 | 17.21235 | -64.31551 | 35139 ft | 423 kts | 306° |
| 2026-05-05 01:13 | 17.22945 | -64.34045 | 34674 ft | 421 kts | 306° |
| 2026-05-05 01:13 | 17.24649 | -64.36534 | 34208 ft | 420 kts | 306° |
| 2026-05-05 01:13 | 17.26347 | -64.39013 | 33706 ft | 418 kts | 306° |
| 2026-05-05 01:14 | 17.28035 | -64.41473 | 33244 ft | 415 kts | 306° |
| 2026-05-05 01:14 | 17.29714 | -64.43925 | 32780 ft | 413 kts | 306° |
| 2026-05-05 01:14 | 17.31361 | -64.46331 | 32322 ft | 411 kts | 306° |
| 2026-05-05 01:14 | 17.33041 | -64.48784 | 31869 ft | 409 kts | 306° |
| 2026-05-05 01:15 | 17.34672 | -64.51166 | 31415 ft | 407 kts | 306° |
| 2026-05-05 01:15 | 17.36315 | -64.53569 | 30980 ft | 406 kts | 306° |
| 2026-05-05 01:15 | 17.37956 | -64.55970 | 30549 ft | 405 kts | 306° |
| 2026-05-05 01:15 | 17.39594 | -64.58369 | 30103 ft | 404 kts | 307° |
| 2026-05-05 01:16 | 17.41226 | -64.60760 | 29640 ft | 402 kts | 306° |
| 2026-05-05 01:16 | 17.42849 | -64.63135 | 29225 ft | 400 kts | 307° |
| 2026-05-05 01:16 | 17.44462 | -64.65494 | 28814 ft | 398 kts | 306° |
| 2026-05-05 01:16 | 17.46072 | -64.67844 | 28415 ft | 396 kts | 306° |
| 2026-05-05 01:17 | 17.47675 | -64.70185 | 28016 ft | 395 kts | 306° |
| 2026-05-05 01:17 | 17.49269 | -64.72521 | 27608 ft | 394 kts | 306° |
| 2026-05-05 01:17 | 17.50856 | -64.74850 | 27208 ft | 392 kts | 306° |
| 2026-05-05 01:17 | 17.52436 | -64.77173 | 26799 ft | 391 kts | 306° |
| 2026-05-05 01:18 | 17.54012 | -64.79494 | 26380 ft | 390 kts | 305° |
| 2026-05-05 01:18 | 17.55585 | -64.81809 | 25970 ft | 389 kts | 305° |
| 2026-05-05 01:18 | 17.57157 | -64.84118 | 25531 ft | 389 kts | 305° |
| 2026-05-05 01:18 | 17.58728 | -64.86423 | 25137 ft | 388 kts | 305° |
| 2026-05-05 01:19 | 17.60298 | -64.88729 | 24693 ft | 389 kts | 305° |
| 2026-05-05 01:19 | 17.61868 | -64.91037 | 24243 ft | 389 kts | 305° |
| 2026-05-05 01:19 | 17.63438 | -64.93346 | 23791 ft | 389 kts | 305° |
| 2026-05-05 01:19 | 17.65014 | -64.95663 | 23274 ft | 390 kts | 305° |
| 2026-05-05 01:20 | 17.66583 | -64.97969 | 22828 ft | 387 kts | 304° |
| 2026-05-05 01:20 | 17.68139 | -65.00259 | 22348 ft | 385 kts | 304° |
| 2026-05-05 01:20 | 17.69691 | -65.02545 | 21894 ft | 383 kts | 304° |
| 2026-05-05 01:20 | 17.71209 | -65.04780 | 21447 ft | 381 kts | 304° |
| 2026-05-05 01:21 | 17.72736 | -65.07033 | 20996 ft | 378 kts | 305° |
| 2026-05-05 01:21 | 17.74256 | -65.09275 | 20537 ft | 375 kts | 305° |
| 2026-05-05 01:21 | 17.75758 | -65.11491 | 20175 ft | 370 kts | 305° |
| 2026-05-05 01:21 | 17.77235 | -65.13669 | 19850 ft | 363 kts | 305° |
| 2026-05-05 01:22 | 17.78694 | -65.15821 | 19418 ft | 360 kts | 305° |
| 2026-05-05 01:22 | 17.80137 | -65.17953 | 19036 ft | 356 kts | 305° |
| 2026-05-05 01:22 | 17.81563 | -65.20062 | 18641 ft | 352 kts | 305° |
| 2026-05-05 01:22 | 17.82976 | -65.22150 | 18244 ft | 348 kts | 305° |
| 2026-05-05 01:23 | 17.84372 | -65.24212 | 17772 ft | 346 kts | 305° |
| 2026-05-05 01:23 | 17.85764 | -65.26268 | 17269 ft | 345 kts | 305° |
| 2026-05-05 01:23 | 17.87150 | -65.28313 | 16785 ft | 343 kts | 305° |
| 2026-05-05 01:23 | 17.88530 | -65.30351 | 16313 ft | 342 kts | 305° |
| 2026-05-05 01:24 | 17.89900 | -65.32376 | 15898 ft | 338 kts | 305° |
| 2026-05-05 01:24 | 17.91260 | -65.34387 | 15430 ft | 337 kts | 305° |
| 2026-05-05 01:24 | 17.92622 | -65.36401 | 14905 ft | 339 kts | 305° |
| 2026-05-05 01:24 | 17.93986 | -65.38420 | 14479 ft | 338 kts | 305° |
| 2026-05-05 01:25 | 17.95341 | -65.40430 | 14075 ft | 337 kts | 305° |
| 2026-05-05 01:25 | 17.96694 | -65.42437 | 13635 ft | 336 kts | 305° |
| 2026-05-05 01:25 | 17.98040 | -65.44436 | 13210 ft | 334 kts | 305° |
| 2026-05-05 01:25 | 17.99376 | -65.46419 | 12807 ft | 332 kts | 305° |
| 2026-05-05 01:26 | 18.00703 | -65.48392 | 12407 ft | 330 kts | 304° |
| 2026-05-05 01:26 | 18.02023 | -65.50355 | 12001 ft | 328 kts | 304° |
| 2026-05-05 01:26 | 18.03339 | -65.52310 | 11592 ft | 327 kts | 305° |
| 2026-05-05 01:26 | 18.04650 | -65.54252 | 11191 ft | 325 kts | 305° |
| 2026-05-05 01:27 | 18.05944 | -65.56174 | 10997 ft | 317 kts | 304° |
| 2026-05-05 01:27 | 18.07180 | -65.58047 | 10998 ft | 310 kts | 303° |
| 2026-05-05 01:27 | 18.08401 | -65.59919 | 10734 ft | 314 kts | 303° |
| 2026-05-05 01:27 | 18.09641 | -65.61831 | 10056 ft | 313 kts | 303° |
| 2026-05-05 01:28 | 18.10828 | -65.63661 | 9883 ft | 304 kts | 303° |
| 2026-05-05 01:28 | 18.12033 | -65.65514 | 9791 ft | 304 kts | 303° |
| 2026-05-05 01:28 | 18.13228 | -65.67347 | 9601 ft | 304 kts | 304° |
| 2026-05-05 01:28 | 18.14421 | -65.69171 | 9397 ft | 303 kts | 304° |
| 2026-05-05 01:29 | 18.15612 | -65.70993 | 9191 ft | 301 kts | 304° |
| 2026-05-05 01:29 | 18.16789 | -65.72797 | 8992 ft | 296 kts | 304° |
| 2026-05-05 01:29 | 18.17934 | -65.74555 | 8856 ft | 286 kts | 304° |
| 2026-05-05 01:29 | 18.19047 | -65.76213 | 8734 ft | 277 kts | 307° |
| 2026-05-05 01:30 | 18.20244 | -65.77764 | 8607 ft | 269 kts | 310° |
| 2026-05-05 01:30 | 18.21458 | -65.79226 | 8444 ft | 262 kts | 311° |
| 2026-05-05 01:30 | 18.22656 | -65.80638 | 8266 ft | 256 kts | 311° |
| 2026-05-05 01:30 | 18.23831 | -65.82026 | 8099 ft | 253 kts | 311° |
| 2026-05-05 01:31 | 18.24991 | -65.83407 | 7939 ft | 250 kts | 311° |
| 2026-05-05 01:31 | 18.26140 | -65.84785 | 7772 ft | 251 kts | 311° |
| 2026-05-05 01:31 | 18.27284 | -65.86166 | 7603 ft | 250 kts | 311° |
| 2026-05-05 01:31 | 18.28429 | -65.87550 | 7445 ft | 250 kts | 311° |
| 2026-05-05 01:32 | 18.29571 | -65.88931 | 7258 ft | 250 kts | 310° |
| 2026-05-05 01:32 | 18.30707 | -65.90313 | 7069 ft | 249 kts | 310° |
| 2026-05-05 01:32 | 18.31839 | -65.91689 | 6818 ft | 249 kts | 311° |
| 2026-05-05 01:32 | 18.32972 | -65.93065 | 6564 ft | 249 kts | 311° |
| 2026-05-05 01:33 | 18.34103 | -65.94441 | 6301 ft | 247 kts | 311° |
| 2026-05-05 01:33 | 18.35159 | -65.95856 | 6030 ft | 245 kts | 301° |
| 2026-05-05 01:33 | 18.35879 | -65.97472 | 5758 ft | 243 kts | 287° |
| 2026-05-05 01:33 | 18.36207 | -65.99203 | 5496 ft | 241 kts | 272° |
| 2026-05-05 01:34 | 18.36229 | -66.00957 | 5232 ft | 240 kts | 268° |
| 2026-05-05 01:34 | 18.36231 | -66.02714 | 4970 ft | 239 kts | 268° |
| 2026-05-05 01:34 | 18.36234 | -66.04458 | 4701 ft | 238 kts | 268° |
| 2026-05-05 01:34 | 18.36239 | -66.06193 | 4430 ft | 237 kts | 268° |
| 2026-05-05 01:35 | 18.36244 | -66.07931 | 4191 ft | 242 kts | 268° |
| 2026-05-05 01:35 | 18.36247 | -66.09743 | 4011 ft | 256 kts | 268° |
| 2026-05-05 01:35 | 18.36249 | -66.11623 | 3816 ft | 257 kts | 268° |
| 2026-05-05 01:35 | 18.36253 | -66.13507 | 3626 ft | 257 kts | 268° |
| 2026-05-05 01:36 | 18.36257 | -66.15366 | 3431 ft | 251 kts | 267° |
| 2026-05-05 01:36 | 18.36294 | -66.17183 | 3230 ft | 246 kts | 275° |
| 2026-05-05 01:36 | 18.36931 | -66.18807 | 3029 ft | 240 kts | 310° |
| 2026-05-05 01:36 | 18.38249 | -66.19795 | 2832 ft | 230 kts | 344° |
| 2026-05-05 01:37 | 18.39788 | -66.19981 | 2661 ft | 220 kts | 4° |
| 2026-05-05 01:37 | 18.41302 | -66.19956 | 2447 ft | 214 kts | 7° |
| 2026-05-05 01:37 | 18.42629 | -66.19438 | 2246 ft | 200 kts | 45° |
| 2026-05-05 01:37 | 18.43326 | -66.18271 | 2103 ft | 182 kts | 81° |
| 2026-05-05 01:38 | 18.43387 | -66.17007 | 2021 ft | 167 kts | 94° |
| 2026-05-05 01:38 | 18.43384 | -66.15824 | 1995 ft | 162 kts | 93° |
| 2026-05-05 01:38 | 18.43379 | -66.14596 | 1990 ft | 170 kts | 93° |
| 2026-05-05 01:38 | 18.43377 | -66.13347 | 1996 ft | 172 kts | 92° |
| 2026-05-05 01:39 | 18.43376 | -66.12086 | 1891 ft | 167 kts | 93° |
| 2026-05-05 01:39 | 18.43376 | -66.10929 | 1716 ft | 150 kts | 93° |
| 2026-05-05 01:39 | 18.43374 | -66.09868 | 1541 ft | 141 kts | 94° |
| 2026-05-05 01:39 | 18.43372 | -66.08848 | 1368 ft | 138 kts | 92° |
| 2026-05-05 01:40 | 18.43369 | -66.07842 | 1213 ft | 137 kts | 93° |
| 2026-05-05 01:40 | 18.43367 | -66.06846 | 1036 ft | 136 kts | 92° |
| 2026-05-05 01:40 | 18.43365 | -66.05851 | 867 ft | 135 kts | 92° |
| 2026-05-05 01:40 | 18.43363 | -66.04865 | 707 ft | 134 kts | 91° |
| 2026-05-05 01:41 | 18.43361 | -66.03888 | 528 ft | 133 kts | 89° |
| 2026-05-05 01:41 | 18.43359 | -66.02918 | 346 ft | 133 kts | 90° |
| 2026-05-05 01:41 | 18.43356 | -66.01948 | 189 ft | 132 kts | 89° |
| 2026-05-05 01:41 | 18.43355 | -66.01001 | 30 ft | 127 kts | 90° |
| 2026-05-05 01:42 | 18.43357 | -66.00262 | 17 ft | 62 kts | 90° |
| 2026-05-05 01:42 | 18.43356 | -66.00100 | 17 ft | 1 kts | 90° |
| 2026-05-05 01:42 | 18.43356 | -66.00095 | 17 ft | 5 kts | 90° |
| 2026-05-05 01:42 | 18.43365 | -66.00008 | 17 ft | 19 kts | 73° |
| 2026-05-05 01:43 | 18.43435 | -65.99905 | 17 ft | 10 kts | 6° |
| 2026-05-05 01:43 | 18.43463 | -65.99941 | 18 ft | 4 kts | 277° |
| 2026-05-05 01:43 | 18.43463 | -65.99966 | 17 ft | 7 kts | 270° |
| 2026-05-05 01:43 | 18.43463 | -66.00067 | 17 ft | 14 kts | 269° |
| 2026-05-05 01:44 | 18.43463 | -66.00188 | 17 ft | 19 kts | 270° |
| 2026-05-05 01:44 | 18.43465 | -66.00341 | 17 ft | 22 kts | 270° |
| 2026-05-05 01:44 | 18.43465 | -66.00505 | 17 ft | 21 kts | 270° |
| 2026-05-05 01:44 | 18.43465 | -66.00616 | 17 ft | 6 kts | 271° |
| 2026-05-05 01:45 | 18.43494 | -66.00648 | 17 ft | 8 kts | 342° |
| 2026-05-05 01:45 | 18.43534 | -66.00649 | 17 ft | 1 kts | 359° |
| 2026-05-05 01:45 | 18.43547 | -66.00649 | 17 ft | 2 kts | 359° |
| 2026-05-05 01:45 | 18.43552 | -66.00649 | 17 ft | 0 kts | 360° |